createdAt,value
2018-06-13T00:00:02.430Z,3.10
2018-06-13T00:02:31.053Z,2.70
2018-06-13T00:04:59.587Z,2.77
2018-06-13T00:07:27.932Z,2.40
2018-06-13T00:09:56.533Z,2.67
2018-06-13T00:12:25.135Z,2.57
2018-06-13T00:14:53.583Z,3.53
2018-06-13T00:17:21.999Z,3.13
2018-06-13T00:19:50.597Z,2.97
2018-06-13T00:22:18.813Z,2.97
2018-06-13T00:24:48.024Z,3.07
2018-06-13T00:27:16.291Z,3.30
2018-06-13T00:29:44.665Z,2.83
2018-06-13T00:32:13.234Z,2.90
2018-06-13T00:34:41.630Z,3.10
2018-06-13T00:37:10.173Z,2.67
2018-06-13T00:39:38.847Z,3.03
2018-06-13T00:42:07.381Z,2.83
2018-06-13T00:44:35.774Z,3.20
2018-06-13T00:47:04.493Z,3.30
2018-06-13T00:49:33.030Z,3.07
2018-06-13T00:52:01.401Z,3.00
2018-06-13T00:54:29.897Z,2.93
2018-06-13T00:56:58.501Z,3.10
2018-06-13T00:59:26.854Z,2.83
2018-06-13T01:01:55.282Z,3.10
2018-06-13T01:04:23.844Z,3.00
2018-06-13T01:06:52.245Z,3.00
2018-06-13T01:09:20.722Z,3.00
2018-06-13T01:11:49.162Z,3.30
2018-06-13T01:14:17.554Z,3.20
2018-06-13T01:16:46.079Z,3.30
2018-06-13T01:19:14.604Z,3.03
2018-06-13T01:21:42.977Z,3.00
2018-06-13T01:24:11.562Z,3.80
2018-06-13T01:26:39.855Z,3.20
2018-06-13T01:29:08.229Z,3.20
2018-06-13T01:31:36.818Z,3.07
2018-06-13T01:34:05.224Z,3.40
2018-06-13T01:36:34.494Z,2.90
2018-06-13T01:39:03.187Z,3.10
2018-06-13T01:41:31.713Z,2.97
2018-06-13T01:44:00.219Z,3.20
2018-06-13T01:46:28.620Z,3.60
2018-06-13T01:48:57.325Z,3.47
2018-06-13T01:51:25.830Z,3.63
2018-06-13T01:53:54.248Z,3.47
2018-06-13T01:56:22.554Z,3.60
2018-06-13T01:58:51.154Z,3.20
2018-06-13T02:01:19.601Z,3.67
2018-06-13T02:03:47.988Z,3.23
2018-06-13T02:06:16.610Z,3.87
2018-06-13T02:08:44.910Z,3.90
2018-06-13T02:11:13.537Z,3.40
2018-06-13T02:13:42.016Z,3.67
2018-06-13T02:16:10.576Z,3.73
2018-06-13T02:18:39.090Z,3.77
2018-06-13T02:21:07.605Z,3.57
2018-06-13T02:23:35.984Z,3.60
2018-06-13T02:26:04.525Z,3.63
2018-06-13T02:28:32.971Z,4.07
2018-06-13T02:31:01.490Z,3.90
2018-06-13T02:33:30.105Z,4.23
2018-06-13T02:35:58.597Z,3.90
2018-06-13T02:38:26.991Z,3.77
2018-06-13T02:40:55.517Z,3.40
2018-06-13T02:43:24.002Z,3.70
2018-06-13T02:45:52.485Z,3.93
2018-06-13T02:48:21.868Z,3.70
2018-06-13T02:50:50.527Z,3.53
2018-06-13T02:53:19.075Z,3.90
2018-06-13T02:55:47.534Z,3.50
2018-06-13T02:58:16.121Z,3.57
2018-06-13T03:00:45.201Z,4.40
2018-06-13T03:03:13.750Z,3.70
2018-06-13T03:05:42.120Z,3.60
2018-06-13T03:08:10.361Z,4.27
2018-06-13T03:10:38.729Z,3.30
2018-06-13T03:13:07.387Z,3.13
2018-06-13T03:15:35.793Z,3.90
2018-06-13T03:18:04.178Z,3.43
2018-06-13T03:20:32.694Z,3.73
2018-06-13T03:23:01.345Z,3.60
2018-06-13T03:25:29.857Z,4.40
2018-06-13T03:27:58.492Z,4.33
2018-06-13T03:30:27.058Z,5.50
2018-06-13T03:32:56.369Z,4.30
2018-06-13T03:35:24.907Z,4.03
2018-06-13T03:37:53.387Z,4.20
2018-06-13T03:40:21.866Z,3.97
2018-06-13T03:42:50.506Z,4.03
2018-06-13T03:45:18.896Z,4.67
2018-06-13T03:47:47.287Z,4.70
2018-06-13T03:50:15.661Z,4.57
2018-06-13T03:52:43.985Z,4.50
2018-06-13T03:55:12.629Z,4.50
2018-06-13T03:57:41.219Z,4.20
2018-06-13T04:00:09.848Z,4.47
2018-06-13T04:02:38.499Z,4.23
2018-06-13T04:05:07.082Z,4.47
2018-06-13T04:07:35.509Z,5.23
2018-06-13T04:10:04.034Z,4.20
2018-06-13T04:12:32.636Z,4.37
2018-06-13T04:15:01.755Z,4.50
2018-06-13T04:17:30.091Z,4.20
2018-06-13T04:19:58.685Z,4.07
2018-06-13T04:22:27.306Z,4.80
2018-06-13T04:24:55.683Z,4.63
2018-06-13T04:27:24.242Z,3.67
2018-06-13T04:29:52.738Z,4.40
2018-06-13T04:32:21.096Z,4.17
2018-06-13T04:34:49.662Z,4.43
2018-06-13T04:37:18.191Z,4.33
2018-06-13T04:39:46.681Z,4.67
2018-06-13T04:42:15.154Z,4.17
2018-06-13T04:44:43.744Z,5.30
2018-06-13T04:47:12.046Z,4.70
2018-06-13T04:49:40.621Z,5.00
2018-06-13T04:52:09.041Z,4.57
2018-06-13T04:54:37.350Z,5.97
2018-06-13T04:57:05.904Z,4.73
2018-06-13T04:59:34.479Z,4.63
2018-06-13T05:02:02.901Z,5.43
2018-06-13T05:04:31.303Z,5.17
2018-06-13T05:06:59.731Z,5.07
2018-06-13T05:09:28.477Z,5.30
2018-06-13T05:11:57.101Z,5.53
2018-06-13T05:14:25.573Z,5.50
2018-06-13T05:16:53.929Z,5.03
2018-06-13T05:19:22.546Z,5.80
2018-06-13T05:21:51.038Z,5.40
2018-06-13T05:24:19.497Z,6.07
2018-06-13T05:26:48.116Z,6.97
2018-06-13T05:29:16.622Z,6.23
2018-06-13T05:31:44.936Z,5.97
2018-06-13T05:34:16.341Z,6.50
2018-06-13T05:36:44.852Z,6.13
2018-06-13T05:39:13.501Z,6.73
2018-06-13T05:41:42.162Z,6.90
2018-06-13T05:44:10.678Z,6.47
2018-06-13T05:46:39.110Z,7.00
2018-06-13T05:49:07.627Z,6.40
2018-06-13T05:51:36.209Z,6.60
2018-06-13T05:54:04.634Z,7.03
2018-06-13T05:56:33.176Z,6.50
2018-06-13T05:59:01.897Z,6.53
2018-06-13T06:01:31.326Z,6.63
2018-06-13T06:03:59.636Z,7.43
2018-06-13T06:06:28.115Z,7.17
2018-06-13T06:08:56.796Z,13.60
2018-06-13T06:11:25.283Z,7.87
2018-06-13T06:13:53.835Z,8.13
2018-06-13T06:16:23.066Z,8.23
2018-06-13T06:18:51.749Z,7.73
2018-06-13T06:21:27.427Z,6.90
2018-06-13T06:23:55.667Z,7.03
2018-06-13T06:26:24.266Z,6.97
2018-06-13T06:28:52.674Z,6.50
2018-06-13T06:31:21.101Z,6.73
2018-06-13T06:33:49.691Z,7.00
2018-06-13T06:36:18.161Z,7.27
2018-06-13T06:38:46.653Z,8.10
2018-06-13T06:41:15.312Z,8.43
2018-06-13T06:43:43.720Z,7.37
2018-06-13T06:46:12.097Z,8.03
2018-06-13T06:48:40.805Z,7.37
2018-06-13T06:51:09.267Z,7.17
2018-06-13T06:53:37.848Z,7.13
2018-06-13T06:56:06.425Z,7.17
2018-06-13T06:58:34.825Z,7.87
2018-06-13T07:01:03.454Z,7.50
2018-06-13T07:03:31.754Z,8.87
2018-06-13T07:06:00.250Z,8.20
2018-06-13T07:08:28.735Z,8.43
2018-06-13T07:10:57.212Z,8.83
2018-06-13T07:13:25.677Z,8.13
2018-06-13T07:15:54.186Z,8.20
2018-06-13T07:18:22.758Z,8.53
2018-06-13T07:20:51.322Z,9.77
2018-06-13T07:23:19.865Z,8.03
2018-06-13T07:25:48.458Z,8.20
2018-06-13T07:28:16.986Z,8.30
2018-06-13T07:30:45.490Z,8.37
2018-06-13T07:33:13.982Z,7.40
2018-06-13T07:35:42.318Z,7.30
2018-06-13T07:38:10.782Z,7.37
2018-06-13T07:40:39.189Z,7.83
2018-06-13T07:43:07.367Z,7.30
2018-06-13T07:45:35.702Z,7.63
2018-06-13T07:48:04.266Z,7.30
2018-06-13T07:50:32.872Z,7.60
2018-06-13T07:53:01.511Z,7.77
2018-06-13T07:55:29.990Z,7.60
2018-06-13T07:57:58.492Z,7.77
2018-06-13T08:00:26.854Z,7.93
2018-06-13T08:02:55.640Z,7.57
2018-06-13T08:05:24.270Z,8.40
2018-06-13T08:07:52.932Z,7.47
2018-06-13T08:10:21.514Z,8.33
2018-06-13T08:12:50.057Z,7.90
2018-06-13T08:15:18.556Z,7.97
2018-06-13T08:17:47.120Z,7.00
2018-06-13T08:20:15.638Z,7.70
2018-06-13T08:22:44.099Z,7.60
2018-06-13T08:25:15.550Z,7.93
2018-06-13T08:27:49.869Z,8.67
2018-06-13T08:30:18.381Z,8.03
2018-06-13T08:32:46.933Z,8.30
2018-06-13T08:35:15.457Z,7.87
2018-06-13T08:37:43.957Z,6.90
2018-06-13T08:40:12.721Z,10.10
2018-06-13T08:42:41.269Z,8.47
2018-06-13T08:45:09.706Z,7.40
2018-06-13T08:47:38.280Z,7.57
2018-06-13T08:50:06.722Z,8.23
2018-06-13T08:52:35.201Z,8.90
2018-06-13T08:55:03.790Z,10.20
2018-06-13T08:57:38.825Z,9.17
2018-06-13T09:00:07.257Z,8.80
2018-06-13T09:02:35.893Z,7.60
2018-06-13T09:05:04.568Z,7.30
2018-06-13T09:07:33.731Z,8.97
2018-06-13T09:10:02.159Z,8.37
2018-06-13T09:12:30.541Z,8.33
2018-06-13T09:14:59.225Z,8.57
2018-06-13T09:17:27.552Z,8.63
2018-06-13T09:19:55.970Z,8.03
2018-06-13T09:22:24.470Z,8.33
2018-06-13T09:24:53.127Z,7.73
2018-06-13T09:27:21.506Z,7.87
2018-06-13T09:29:49.902Z,8.03
2018-06-13T09:32:18.523Z,7.60
2018-06-13T09:34:47.178Z,7.77
2018-06-13T09:37:15.661Z,6.97
2018-06-13T09:39:44.365Z,7.33
2018-06-13T09:42:12.909Z,7.10
2018-06-13T09:44:41.565Z,6.33
2018-06-13T09:47:15.130Z,6.60
2018-06-13T09:49:38.477Z,6.43
2018-06-13T09:52:07.009Z,6.60
2018-06-13T09:54:35.443Z,7.13
2018-06-13T09:57:04.009Z,6.40
2018-06-13T09:59:35.260Z,13.03
2018-06-13T10:02:09.313Z,13.73
2018-06-13T10:04:37.683Z,8.17
2018-06-13T10:07:06.228Z,9.83
2018-06-13T10:09:34.737Z,6.23
2018-06-13T10:12:03.301Z,7.17
2018-06-13T10:14:31.882Z,6.43
2018-06-13T10:17:00.978Z,6.20
2018-06-13T10:19:29.501Z,6.43
2018-06-13T10:21:57.848Z,6.50
2018-06-13T10:24:26.578Z,6.97
2018-06-13T10:26:55.240Z,7.07
2018-06-13T10:29:23.897Z,6.40
2018-06-13T10:31:52.286Z,6.57
2018-06-13T10:34:20.871Z,6.17
2018-06-13T10:36:49.290Z,6.77
2018-06-13T10:39:17.767Z,6.30
2018-06-13T10:41:46.255Z,6.33
2018-06-13T10:44:14.482Z,6.67
2018-06-13T10:46:43.173Z,6.63
2018-06-13T10:49:11.692Z,6.27
2018-06-13T10:51:40.170Z,6.73
2018-06-13T10:54:08.709Z,6.37
2018-06-13T10:56:37.258Z,7.03
2018-06-13T10:59:05.598Z,6.43
2018-06-13T11:01:34.264Z,7.57
2018-06-13T11:04:02.751Z,6.00
2018-06-13T11:06:32.499Z,6.57
2018-06-13T11:09:00.933Z,6.63
2018-06-13T11:11:29.290Z,7.00
2018-06-13T11:13:57.713Z,6.37
2018-06-13T11:16:26.272Z,6.83
2018-06-13T11:18:54.930Z,6.53
2018-06-13T11:21:27.132Z,6.10
2018-06-13T11:23:57.851Z,6.13
2018-06-13T11:26:26.358Z,6.27
2018-06-13T11:28:54.922Z,6.60
2018-06-13T11:31:23.320Z,5.97
2018-06-13T11:33:57.258Z,6.40
2018-06-13T11:36:25.702Z,5.70
2018-06-13T11:38:54.297Z,5.77
2018-06-13T11:41:22.779Z,5.40
2018-06-13T11:43:51.530Z,5.47
2018-06-13T11:46:19.954Z,5.30
2018-06-13T11:48:48.554Z,4.93
2018-06-13T11:51:16.823Z,5.90
2018-06-13T11:53:45.409Z,6.43
2018-06-13T11:56:14.013Z,6.47
2018-06-13T11:58:42.529Z,5.90
2018-06-13T12:01:11.017Z,5.83
2018-06-13T12:03:39.514Z,6.20
2018-06-13T12:06:08.012Z,6.13
2018-06-13T12:08:36.368Z,5.50
2018-06-13T12:11:05.066Z,5.83
2018-06-13T12:13:34.079Z,5.97
2018-06-13T12:16:02.594Z,6.00
2018-06-13T12:18:31.225Z,5.60
2018-06-13T12:20:59.558Z,5.30
2018-06-13T12:23:27.887Z,4.93
2018-06-13T12:25:56.265Z,5.10
2018-06-13T12:28:24.746Z,4.87
2018-06-13T12:30:53.208Z,4.87
2018-06-13T12:33:21.631Z,5.47
2018-06-13T12:35:50.242Z,4.60
2018-06-13T12:38:18.662Z,5.57
2018-06-13T12:40:47.271Z,4.83
2018-06-13T12:43:15.923Z,5.27
2018-06-13T12:45:44.443Z,5.50
2018-06-13T12:48:12.966Z,4.83
2018-06-13T12:50:41.386Z,5.30
2018-06-13T12:53:09.979Z,5.17
2018-06-13T12:55:38.338Z,4.90
2018-06-13T12:58:06.817Z,5.30
2018-06-13T13:00:35.245Z,5.20
2018-06-13T13:03:03.591Z,5.00
2018-06-13T13:05:32.086Z,4.93
2018-06-13T13:08:00.341Z,4.83
2018-06-13T13:10:29.632Z,4.30
2018-06-13T13:12:58.032Z,4.97
2018-06-13T13:15:26.453Z,5.37
2018-06-13T13:17:54.885Z,4.77
2018-06-13T13:20:23.469Z,4.83
2018-06-13T13:22:51.964Z,5.13
2018-06-13T13:25:20.380Z,5.10
2018-06-13T13:27:48.918Z,4.87
2018-06-13T13:30:17.674Z,4.50
2018-06-13T13:32:45.996Z,6.00
2018-06-13T13:35:14.554Z,5.63
2018-06-13T13:37:43.038Z,5.60
2018-06-13T13:40:11.509Z,5.17
2018-06-13T13:42:39.907Z,6.30
2018-06-13T13:45:08.385Z,5.20
2018-06-13T13:47:36.700Z,5.63
2018-06-13T13:50:05.486Z,5.50
2018-06-13T13:52:33.933Z,5.10
2018-06-13T13:55:02.675Z,4.93
2018-06-13T13:57:31.100Z,5.47
2018-06-13T13:59:59.814Z,5.10
2018-06-13T14:02:28.288Z,5.33
2018-06-13T14:04:56.862Z,6.23
2018-06-13T14:07:25.539Z,6.33
2018-06-13T14:09:53.918Z,5.60
2018-06-13T14:12:22.273Z,5.13
2018-06-13T14:14:50.772Z,5.03
2018-06-13T14:17:19.161Z,5.53
2018-06-13T14:19:47.440Z,5.03
2018-06-13T14:22:15.818Z,7.00
2018-06-13T14:24:44.311Z,5.40
2018-06-13T14:27:12.800Z,6.07
2018-06-13T14:29:41.301Z,4.70
2018-06-13T14:32:09.538Z,4.67
2018-06-13T14:34:38.022Z,5.23
2018-06-13T14:37:06.554Z,4.80
2018-06-13T14:39:34.878Z,5.00
2018-06-13T14:42:03.190Z,4.77
2018-06-13T14:44:31.749Z,5.17
2018-06-13T14:47:00.118Z,5.23
2018-06-13T14:49:28.594Z,5.17
2018-06-13T14:51:57.049Z,5.63
2018-06-13T14:54:25.466Z,5.03
2018-06-13T14:56:53.937Z,5.43
2018-06-13T14:59:23.192Z,5.17
2018-06-13T15:01:51.560Z,5.20
2018-06-13T15:04:25.449Z,5.40
2018-06-13T15:06:53.898Z,5.20
2018-06-13T15:09:22.289Z,6.03
2018-06-13T15:11:50.557Z,5.00
2018-06-13T15:14:19.178Z,6.43
2018-06-13T15:16:47.412Z,6.53
2018-06-13T15:19:16.031Z,5.50
2018-06-13T15:21:44.307Z,5.97
2018-06-13T15:24:12.685Z,8.50
2018-06-13T15:26:41.272Z,5.80
2018-06-13T15:29:09.666Z,6.57
2018-06-13T15:31:38.125Z,6.13
2018-06-13T15:34:06.689Z,4.77
2018-06-13T15:36:35.117Z,4.50
2018-06-13T15:39:05.851Z,4.50
2018-06-13T15:41:34.902Z,4.50
2018-06-13T15:44:03.416Z,4.50
2018-06-13T15:46:32.185Z,4.47
2018-06-13T15:49:00.677Z,4.40
2018-06-13T15:51:29.135Z,4.67
2018-06-13T15:53:57.765Z,4.23
2018-06-13T15:56:26.130Z,4.50
2018-06-13T15:58:54.506Z,4.90
2018-06-13T16:01:22.941Z,4.93
2018-06-13T16:03:51.391Z,4.70
2018-06-13T16:06:19.950Z,4.93
2018-06-13T16:08:48.501Z,4.10
2018-06-13T16:11:16.878Z,4.43
2018-06-13T16:13:45.368Z,4.50
2018-06-13T16:16:13.838Z,4.60
2018-06-13T16:18:42.324Z,5.17
2018-06-13T16:21:10.962Z,4.90
2018-06-13T16:23:39.545Z,4.70
2018-06-13T16:26:07.900Z,4.60
2018-06-13T16:28:36.569Z,4.40
2018-06-13T16:31:05.051Z,4.70
2018-06-13T16:33:33.344Z,4.87
2018-06-13T16:36:01.904Z,5.33
2018-06-13T16:38:30.414Z,6.27
2018-06-13T16:40:58.892Z,4.80
2018-06-13T16:43:27.449Z,4.50
2018-06-13T16:45:55.826Z,6.23
2018-06-13T16:48:24.311Z,7.10
2018-06-13T16:51:03.695Z,7.17
2018-06-13T16:53:52.814Z,6.33
2018-06-13T16:56:21.306Z,6.70
2018-06-13T16:58:50.442Z,9.90
2018-06-13T17:01:18.785Z,10.83
2018-06-13T17:03:47.337Z,9.60
2018-06-13T17:06:15.706Z,12.63
2018-06-13T17:08:44.114Z,10.10
2018-06-13T17:11:13.722Z,6.00
2018-06-13T17:13:42.367Z,5.17
2018-06-13T17:16:10.824Z,5.37
2018-06-13T17:18:39.091Z,5.70
2018-06-13T17:21:07.732Z,5.97
2018-06-13T17:23:36.642Z,5.53
2018-06-13T17:26:06.142Z,4.90
2018-06-13T17:28:35.578Z,5.00
2018-06-13T17:31:04.198Z,5.20
2018-06-13T17:33:32.865Z,5.67
2018-06-13T17:36:01.389Z,6.90
2018-06-13T17:38:29.909Z,5.73
2018-06-13T17:40:58.302Z,9.17
2018-06-13T17:43:26.342Z,6.40
2018-06-13T17:45:54.729Z,5.77
2018-06-13T17:48:23.126Z,5.50
2018-06-13T17:50:51.868Z,5.23
2018-06-13T17:53:20.378Z,5.03
2018-06-13T17:55:48.753Z,5.47
2018-06-13T17:58:17.128Z,5.73
2018-06-13T18:00:46.432Z,5.43
2018-06-13T18:03:14.842Z,5.67
2018-06-13T18:05:43.165Z,5.00
2018-06-13T18:08:11.664Z,5.27
2018-06-13T18:10:40.146Z,5.60
2018-06-13T18:13:09.414Z,5.40
2018-06-13T18:15:37.826Z,5.47
2018-06-13T18:18:06.513Z,5.20
2018-06-13T18:20:35.920Z,4.80
2018-06-13T18:23:04.496Z,5.93
2018-06-13T18:25:32.986Z,6.33
2018-06-13T18:28:01.467Z,6.40
2018-06-13T18:30:30.045Z,6.23
2018-06-13T18:32:58.686Z,6.17
2018-06-13T18:35:27.043Z,5.60
2018-06-13T18:37:55.725Z,6.17
2018-06-13T18:40:24.306Z,6.10
2018-06-13T18:42:52.763Z,8.47
2018-06-13T18:45:21.459Z,7.40
2018-06-13T18:47:49.557Z,6.20
2018-06-13T18:50:18.589Z,6.90
2018-06-13T18:52:47.799Z,6.83
2018-06-13T18:55:16.158Z,13.17
2018-06-13T18:57:44.738Z,9.80
2018-06-13T19:00:14.110Z,10.10
2018-06-13T19:02:42.650Z,6.50
2018-06-13T19:05:11.249Z,5.70
2018-06-13T19:07:39.501Z,5.87
2018-06-13T19:10:07.999Z,6.40
2018-06-13T19:12:36.461Z,6.33
2018-06-13T19:15:05.927Z,6.70
2018-06-13T19:17:34.378Z,6.83
2018-06-13T19:20:02.940Z,6.30
2018-06-13T19:22:31.539Z,6.80
2018-06-13T19:24:59.933Z,6.30
2018-06-13T19:27:28.398Z,7.03
2018-06-13T19:29:56.814Z,7.07
2018-06-13T19:32:25.195Z,7.10
2018-06-13T19:34:53.513Z,6.57
2018-06-13T19:37:21.926Z,6.83
2018-06-13T19:39:50.503Z,7.93
2018-06-13T19:42:18.954Z,7.57
2018-06-13T19:44:47.395Z,7.20
2018-06-13T19:47:21.151Z,7.90
2018-06-13T19:49:49.674Z,6.80
2018-06-13T19:52:18.405Z,6.13
2018-06-13T19:54:52.118Z,5.93
2018-06-13T19:57:20.525Z,6.60
2018-06-13T19:59:48.909Z,5.77
2018-06-13T20:02:17.044Z,5.57
2018-06-13T20:04:50.803Z,5.87
2018-06-13T20:07:19.338Z,5.90
2018-06-13T20:09:47.936Z,5.37
2018-06-13T20:13:57.746Z,5.60
2018-06-13T20:16:43.361Z,5.40
2018-06-13T20:19:17.086Z,5.50
2018-06-13T20:21:45.340Z,5.67
2018-06-13T20:24:13.627Z,6.20
2018-06-13T20:26:47.302Z,5.83
2018-06-13T20:29:21.038Z,6.00
2018-06-13T20:31:49.645Z,6.00
2018-06-13T20:34:18.186Z,5.40
2018-06-13T20:36:46.561Z,5.23
2018-06-13T20:39:15.090Z,5.73
2018-06-13T20:41:43.441Z,5.40
2018-06-13T20:44:12.049Z,5.30
2018-06-13T20:46:40.546Z,5.17
2018-06-13T20:49:08.936Z,4.70
2018-06-13T20:51:40.444Z,5.63
2018-06-13T20:54:08.788Z,5.10
2018-06-13T20:56:37.350Z,5.53
2018-06-13T20:59:05.884Z,5.50
2018-06-13T21:01:34.262Z,5.27
2018-06-13T21:04:02.765Z,5.73
2018-06-13T21:06:31.175Z,6.50
2018-06-13T21:08:59.402Z,6.23
2018-06-13T21:11:27.945Z,6.53
2018-06-13T21:13:56.595Z,6.07
2018-06-13T21:16:24.931Z,6.40
2018-06-13T21:18:53.454Z,6.07
2018-06-13T21:21:21.810Z,6.57
2018-06-13T21:23:50.400Z,6.10
2018-06-13T21:26:18.969Z,6.73
2018-06-13T21:28:47.349Z,5.63
2018-06-13T21:31:15.874Z,6.50
2018-06-13T21:33:44.314Z,6.73
2018-06-13T21:36:13.677Z,6.63
2018-06-13T21:38:42.098Z,6.90
2018-06-13T21:41:10.501Z,7.23
2018-06-13T21:43:39.121Z,6.60
2018-06-13T21:46:07.464Z,7.60
2018-06-13T21:48:35.851Z,6.97
2018-06-13T21:51:08.479Z,8.03
2018-06-13T21:53:37.006Z,7.63
2018-06-13T21:56:05.504Z,7.70
2018-06-13T21:58:33.882Z,8.03
2018-06-13T22:01:02.453Z,7.83
2018-06-13T22:03:31.066Z,7.70
2018-06-13T22:05:59.298Z,7.30
2018-06-13T22:08:27.766Z,7.27
2018-06-13T22:10:56.067Z,7.87
2018-06-13T22:13:24.529Z,8.40
2018-06-13T22:15:52.809Z,7.90
2018-06-13T22:18:21.221Z,8.63
2018-06-13T22:20:49.661Z,7.60
2018-06-13T22:23:18.151Z,7.90
2018-06-13T22:25:46.758Z,6.90
2018-06-13T22:28:15.007Z,7.87
2018-06-13T22:30:43.629Z,7.73
2018-06-13T22:33:12.021Z,7.03
2018-06-13T22:35:40.345Z,7.10
2018-06-13T22:38:08.667Z,7.07
2018-06-13T22:40:37.100Z,6.47
2018-06-13T22:43:05.477Z,7.17
2018-06-13T22:45:40.497Z,7.50
2018-06-13T22:48:08.993Z,6.80
2018-06-13T22:50:37.279Z,7.10
2018-06-13T22:53:06.717Z,7.30
2018-06-13T22:55:35.266Z,6.70
2018-06-13T22:58:03.726Z,7.10
2018-06-13T23:00:38.501Z,7.27
2018-06-13T23:03:06.737Z,7.33
2018-06-13T23:05:35.131Z,7.40
2018-06-13T23:08:03.454Z,6.67
2018-06-13T23:10:31.785Z,6.50
2018-06-13T23:13:00.159Z,6.17
2018-06-13T23:15:28.442Z,6.63
2018-06-13T23:17:57.026Z,5.93
2018-06-13T23:20:25.536Z,6.60
2018-06-13T23:22:54.055Z,6.43
2018-06-13T23:25:22.526Z,5.70
2018-06-13T23:27:51.014Z,5.80
2018-06-13T23:30:20.279Z,5.30
2018-06-13T23:32:48.824Z,5.30
2018-06-13T23:35:17.254Z,4.90
2018-06-13T23:37:45.629Z,4.70
2018-06-13T23:40:14.089Z,5.03
2018-06-13T23:42:42.707Z,4.40
2018-06-13T23:45:10.983Z,4.30
2018-06-13T23:47:39.214Z,4.03
2018-06-13T23:50:07.570Z,4.37
2018-06-13T23:52:36.142Z,4.00
2018-06-13T23:55:04.650Z,3.93
2018-06-13T23:57:33.024Z,3.73
